Observation data for Northwest San Angelo on 01/11/2018      Previous  Date  Next       Current Mesonet Observations  Soil Data  Daily Summary Page  Observations in Plain Language
KASU 110600Z 24004KT 10/00 A2973 RMK A01 T010200-0  RH  050%=      5-min Rain = 0
KASU 110605Z 21003KT 10/00 A2972 RMK A01 T010100-0  RH  050%=      5-min Rain = 0
KASU 110610Z 18003KT 10/00 A2972 RMK A01 T009700-0  RH  051%=      5-min Rain = 0
KASU 110615Z 17003KT 09/M00 A2972 RMK A01 T00931001  RH  053%=      5-min Rain = 0
KASU 110620Z 18003KT 09/M00 A2972 RMK A01 T00891002  RH  053%=      5-min Rain = 0
KASU 110625Z 18003KT 09/00 A2972 RMK A01 T00920001  RH  053%=      5-min Rain = 0
KASU 110630Z 16003KT 09/M00 A2971 RMK A01 T00931001  RH  052%=      5-min Rain = 0
KASU 110635Z 15003KT 09/M00 A2971 RMK A01 T00891002  RH  054%=      5-min Rain = 0
KASU 110640Z 16005KT 08/M00 A2971 RMK A01 T00841003  RH  055%=      5-min Rain = 0
KASU 110645Z 16005KT 08/M00 A2971 RMK A01 T00791002  RH  057%=      5-min Rain = 0
KASU 110650Z 17005KT 08/M00 A297 RMK A01 T00801001  RH  057%=      5-min Rain = 0
KASU 110655Z 17005KT 08/00 A297 RMK A01 T008200-0  RH  057%=      5-min Rain = 0
KASU 110700Z 19006KT 08/00 A297 RMK A01 T00830001  RH  057%=      5-min Rain = 0
KASU 110705Z 20004KT 09/00 A297 RMK A01 T00860002  RH  056%=      5-min Rain = 0
KASU 110710Z 21003KT 09/00 A297 RMK A01 T00910002  RH  054%=      5-min Rain = 0
KASU 110715Z 21004KT 09/00 A2971 RMK A01 T00910001  RH  054%=      5-min Rain = 0
KASU 110720Z 21003KT 09/00 A297 RMK A01 T00900001  RH  054%=      5-min Rain = 0
KASU 110725Z 21004KT 09/00 A297 RMK A01 T00900001  RH  054%=      5-min Rain = 0
KASU 110730Z 19004KT 09/00 A297 RMK A01 T00860000  RH  055%=      5-min Rain = 0
KASU 110735Z 18004KT 08/00 A2971 RMK A01 T007900-0  RH  058%=      5-min Rain = 0
KASU 110740Z 18005KT 08/M00 A2971 RMK A01 T00781001  RH  058%=      5-min Rain = 0
KASU 110745Z 18005KT 07/M00 A2971 RMK A01 T00741001  RH  060%=      5-min Rain = 0
KASU 110750Z 18005KT 07/00 A2971 RMK A01 T00720001  RH  061%=      5-min Rain = 0
KASU 110755Z 18005KT 07/00 A2971 RMK A01 T00740002  RH  061%=      5-min Rain = 0
KASU 110800Z 17006KT 07/00 A2971 RMK A01 T00740003  RH  061%=      5-min Rain = 0
KASU 110805Z 17006KT 07/00 A2971 RMK A01 T00740004  RH  062%=      5-min Rain = 0
KASU 110810Z 18006KT 08/00 A2971 RMK A01 T00750004  RH  061%=      5-min Rain = 0
KASU 110815Z 18006KT 08/00 A2971 RMK A01 T00770004  RH  060%=      5-min Rain = 0
KASU 110820Z 17006KT 08/00 A2971 RMK A01 T00750004  RH  061%=      5-min Rain = 0
KASU 110825Z 18007KT 08/01 A2971 RMK A01 T00790006  RH  061%=      5-min Rain = 0
KASU 110830Z 19007KT 08/01 A2971 RMK A01 T00780006  RH  061%=      5-min Rain = 0
KASU 110835Z 20007KT 09/01 A2971 RMK A01 T00870007  RH  058%=      5-min Rain = 0
KASU 110840Z 21007KT 10/01 A2971 RMK A01 T00960008  RH  055%=      5-min Rain = 0
KASU 110845Z 23007KT 10/01 A2971 RMK A01 T01030009  RH  053%=      5-min Rain = 0
KASU 110850Z 23007KT 11/01 A2971 RMK A01 T01090010  RH  051%=      5-min Rain = 0
KASU 110855Z 23007KT 11/01 A2971 RMK A01 T01100011  RH  051%=      5-min Rain = 0
KASU 110900Z 23006KT 11/01 A2971 RMK A01 T01130012  RH  050%=      5-min Rain = 0
KASU 110905Z 23006KT 11/01 A2972 RMK A01 T01140011  RH  050%=      5-min Rain = 0
KASU 110910Z 23006KT 12/01 A2972 RMK A01 T01150011  RH  049%=      5-min Rain = 0
KASU 110915Z 22006KT 12/01 A2972 RMK A01 T01160010  RH  049%=      5-min Rain = 0
KASU 110920Z 22006KT 12/01 A2972 RMK A01 T01170010  RH  048%=      5-min Rain = 0
KASU 110925Z 22007KT 12/01 A2971 RMK A01 T01180009  RH  048%=      5-min Rain = 0
KASU 110930Z 22006KT 12/01 A2971 RMK A01 T01190009  RH  047%=      5-min Rain = 0
KASU 110935Z 22006KT 12/01 A2971 RMK A01 T01200008  RH  047%=      5-min Rain = 0
KASU 110940Z 22004KT 12/01 A2971 RMK A01 T01170008  RH  047%=      5-min Rain = 0
KASU 110945Z 22004KT 12/01 A2971 RMK A01 T01150007  RH  048%=      5-min Rain = 0
KASU 110950Z 21005KT 11/01 A2971 RMK A01 T01130006  RH  048%=      5-min Rain = 0
KASU 110955Z 21005KT 11/01 A2971 RMK A01 T01120006  RH  049%=      5-min Rain = 0
KASU 111000Z 20004KT 11/01 A2972 RMK A01 T01130006  RH  048%=      5-min Rain = 0
KASU 111005Z 19004KT 11/01 A2972 RMK A01 T01110005  RH  049%=      5-min Rain = 0
KASU 111010Z 19005KT 11/01 A2972 RMK A01 T01070005  RH  050%=      5-min Rain = 0
KASU 111015Z 20006KT 11/01 A2971 RMK A01 T01120005  RH  048%=      5-min Rain = 0
KASU 111020Z 23008G13KT 12/00 A2971 RMK A01 T01220004  RH  045%=      5-min Rain = 0
KASU 111025Z 23009KT 13/00 A2972 RMK A01 T01300003  RH  042%=      5-min Rain = 0
KASU 111030Z 23007KT 13/00 A2972 RMK A01 T01300003  RH  042%=      5-min Rain = 0
KASU 111035Z 23005KT 13/00 A2972 RMK A01 T01280003  RH  043%=      5-min Rain = 0
KASU 111040Z 24003KT 13/00 A2972 RMK A01 T01260002  RH  043%=      5-min Rain = 0
KASU 111045Z 24002KT 13/00 A2972 RMK A01 T01260002  RH  043%=      5-min Rain = 0
KASU 111050Z 23004KT 13/00 A2973 RMK A01 T01270001  RH  043%=      5-min Rain = 0
KASU 111055Z 23004KT 13/00 A2973 RMK A01 T01270001  RH  042%=      5-min Rain = 0
KASU 111100Z 24004KT 12/00 A2973 RMK A01 T01240001  RH  043%=      5-min Rain = 0
KASU 111105Z 25004KT 12/00 A2972 RMK A01 T01240000  RH  043%=      5-min Rain = 0
KASU 111110Z 25005KT 12/00 A2973 RMK A01 T01230001  RH  043%=      5-min Rain = 0
KASU 111115Z 25004KT 12/00 A2973 RMK A01 T01240001  RH  043%=      5-min Rain = 0
KASU 111120Z 26005KT 13/00 A2973 RMK A01 T01290000  RH  042%=      5-min Rain = 0
KASU 111125Z 26004KT 13/00 A2973 RMK A01 T01300001  RH  041%=      5-min Rain = 0
KASU 111130Z 26004KT 13/00 A2973 RMK A01 T01300001  RH  041%=      5-min Rain = 0
KASU 111135Z 25004KT 13/00 A2973 RMK A01 T01340000  RH  040%=      5-min Rain = 0
KASU 111140Z 26004KT 14/00 A2973 RMK A01 T01360000  RH  040%=      5-min Rain = 0
KASU 111145Z 28004KT 14/00 A2973 RMK A01 T01350001  RH  040%=      5-min Rain = 0
KASU 111150Z 25004KT 14/00 A2974 RMK A01 T01350002  RH  040%=      5-min Rain = 0
KASU 111155Z 26005KT 14/00 A2974 RMK A01 T01370003  RH  040%=      5-min Rain = 0
KASU 111200Z 26006KT 14/00 A2974 RMK A01 T01380003  RH  040%=      5-min Rain = 0
KASU 111205Z 26007KT 14/00 A2974 RMK A01 T01390002  RH  040%=      5-min Rain = 0
KASU 111210Z 26007KT 14/00 A2974 RMK A01 T01380002  RH  040%=      5-min Rain = 0
KASU 111215Z 27007G12KT 14/00 A2974 RMK A01 T01360002  RH  040%=      5-min Rain = 0
KASU 111220Z 27007KT 13/00 A2973 RMK A01 T01340002  RH  041%=      5-min Rain = 0
KASU 111225Z 28007KT 13/00 A2974 RMK A01 T01310002  RH  042%=      5-min Rain = 0
KASU 111230Z 27006KT 13/00 A2974 RMK A01 T01300002  RH  042%=      5-min Rain = 0
KASU 111235Z 28008KT 13/00 A2974 RMK A01 T01300002  RH  042%=      5-min Rain = 0
KASU 111240Z 28006KT 13/00 A2974 RMK A01 T01280002  RH  042%=      5-min Rain = 0
KASU 111245Z 28006KT 13/00 A2974 RMK A01 T01270002  RH  043%=      5-min Rain = 0
KASU 111250Z 27007G12KT 13/00 A2974 RMK A01 T01270003  RH  043%=      5-min Rain = 0
KASU 111255Z 27008G13KT 13/00 A2974 RMK A01 T01300004  RH  042%=      5-min Rain = 0
KASU 111300Z 27009G16KT 13/00 A2975 RMK A01 T01330004  RH  042%=      5-min Rain = 0
KASU 111305Z 26010G15KT 13/00 A2975 RMK A01 T01330004  RH  042%=      5-min Rain = 0
KASU 111310Z 27011G17KT 14/00 A2975 RMK A01 T01350004  RH  041%=      5-min Rain = 0
KASU 111315Z 27010KT 13/00 A2975 RMK A01 T01340004  RH  041%=      5-min Rain = 0
KASU 111320Z 28010G15KT 13/00 A2975 RMK A01 T01330004  RH  042%=      5-min Rain = 0
KASU 111325Z 27011KT 13/00 A2976 RMK A01 T01330004  RH  042%=      5-min Rain = 0
KASU 111330Z 27011KT 13/00 A2976 RMK A01 T01330004  RH  042%=      5-min Rain = 0
KASU 111335Z 28010KT 13/00 A2977 RMK A01 T01320004  RH  042%=      5-min Rain = 0
KASU 111340Z 28011G16KT 13/00 A2978 RMK A01 T01320004  RH  042%=      5-min Rain = 0
KASU 111345Z 28010G15KT 13/00 A2978 RMK A01 T01320004  RH  042%=      5-min Rain = 0
KASU 111350Z 28009KT 13/01 A2979 RMK A01 T01310005  RH  042%=      5-min Rain = 0
KASU 111355Z 29009KT 13/01 A2979 RMK A01 T01300005  RH  043%=      5-min Rain = 0
KASU 111400Z 30009G14KT 13/01 A2979 RMK A01 T01280005  RH  044%=      5-min Rain = 0
KASU 111405Z 30008KT 13/01 A298 RMK A01 T01260006  RH  044%=      5-min Rain = 0
KASU 111410Z 30010KT 13/01 A2981 RMK A01 T01270007  RH  044%=      5-min Rain = 0
KASU 111415Z 30009KT 13/01 A2981 RMK A01 T01280007  RH  044%=      5-min Rain = 0
KASU 111420Z 30009G15KT 13/01 A2982 RMK A01 T01280007  RH  044%=      5-min Rain = 0
KASU 111425Z 30010KT 13/01 A2982 RMK A01 T01290008  RH  044%=      5-min Rain = 0
KASU 111430Z 31012KT 13/01 A2983 RMK A01 T01310010  RH  044%=      5-min Rain = 0
KASU 111435Z 31013G18KT 13/01 A2983 RMK A01 T01310012  RH  045%=      5-min Rain = 0
KASU 111440Z 32017G22KT 13/01 A2984 RMK A01 T01300014  RH  046%=      5-min Rain = 0
KASU 111445Z 32017KT 13/02 A2984 RMK A01 T01280015  RH  047%=      5-min Rain = 0
KASU 111450Z 32020G26KT 13/02 A2985 RMK A01 T01260016  RH  048%=      5-min Rain = 0
KASU 111455Z 33019G24KT 12/02 A2985 RMK A01 T01240016  RH  048%=      5-min Rain = 0
KASU 111500Z 33015G21KT 12/02 A2986 RMK A01 T01230017  RH  049%=      5-min Rain = 0
KASU 111505Z 32018G29KT 12/02 A2987 RMK A01 T01220016  RH  049%=      5-min Rain = 0
KASU 111510Z 32018G25KT 12/01 A2987 RMK A01 T01180014  RH  049%=      5-min Rain = 0
KASU 111515Z 32018G23KT 12/01 A2988 RMK A01 T01170013  RH  049%=      5-min Rain = 0
KASU 111520Z 32021G28KT 11/01 A2989 RMK A01 T01100008  RH  050%=      5-min Rain = 0
KASU 111525Z 32024G30KT 11/01 A299 RMK A01 T01060005  RH  050%=      5-min Rain = 0
KASU 111530Z 32025G32KT 10/00 A2991 RMK A01 T01010001  RH  050%=      5-min Rain = 0
KASU 111535Z 32022G28KT 10/M00 A2991 RMK A01 T01001001  RH  050%=      5-min Rain = 0
KASU 111540Z 32021G29KT 10/M00 A2992 RMK A01 T00981001  RH  050%=      5-min Rain = 0
KASU 111545Z 32022G29KT 10/M00 A2993 RMK A01 T00961003  RH  051%=      5-min Rain = 0
KASU 111550Z 33023G29KT 09/M01 A2994 RMK A01 T00911006  RH  051%=      5-min Rain = 0
KASU 111555Z 33021G28KT 09/M01 A2994 RMK A01 T00891008  RH  051%=      5-min Rain = 0
KASU 111600Z 32021G30KT 09/M01 A2995 RMK A01 T00881007  RH  052%=      5-min Rain = 0
KASU 111605Z 33023G30KT 09/M01 A2995 RMK A01 T00891010  RH  051%=      5-min Rain = 0
KASU 111610Z 33026G35KT 09/M01 A2996 RMK A01 T00861011  RH  051%=      5-min Rain = 0
KASU 111615Z 32024G33KT 08/M01 A2996 RMK A01 T00841010  RH  052%=      5-min Rain = 0
KASU 111620Z 32022G29KT 08/M01 A2997 RMK A01 T00841011  RH  052%=      5-min Rain = 0
KASU 111625Z 33026G34KT 08/M01 A2998 RMK A01 T00811014  RH  052%=      5-min Rain = 0
KASU 111630Z 33024G32KT 07/M01 A2999 RMK A01 T00741006  RH  057%=      5-min Rain = 0
KASU 111635Z 33024G30KT 07/M01 A2999 RMK A01 T00731008  RH  057%=      5-min Rain = 0
KASU 111640Z 32026G32KT 07/M01 A2999 RMK A01 T00701007  RH  058%=      5-min Rain = 0
KASU 111645Z 33023G30KT 07/M00 A30 RMK A01 T00681003  RH  061%=      5-min Rain = 0
KASU 111650Z 33024G33KT 06/00 A3001 RMK A01 T00630003  RH  066%=      5-min Rain = 0
KASU 111655Z 33022G32KT 06/01 A3002 RMK A01 T00580005  RH  070%=      5-min Rain = 0
KASU 111700Z 33020G26KT 06/01 A3002 RMK A01 T00560007  RH  072%=      5-min Rain = 0
KASU 111705Z 33019G25KT 06/01 A3002 RMK A01 T00560005  RH  071%=      5-min Rain = 0
KASU 111710Z 33017G22KT 06/01 A3003 RMK A01 T00590005  RH  069%=      5-min Rain = 0
KASU 111715Z 32018G23KT 06/00 A3003 RMK A01 T00620003  RH  067%=      5-min Rain = 0
KASU 111720Z 32016KT 07/00 A3003 RMK A01 T00650003  RH  065%=      5-min Rain = 0
KASU 111725Z 32016G21KT 07/00 A3004 RMK A01 T00680002  RH  063%=      5-min Rain = 0
KASU 111730Z 32015KT 07/01 A3004 RMK A01 T00720005  RH  063%=      5-min Rain = 0
KASU 111735Z 32018G23KT 08/00 A3004 RMK A01 T00750000  RH  060%=      5-min Rain = 0
KASU 111740Z 31019G25KT 08/M01 A3004 RMK A01 T00761005  RH  057%=      5-min Rain = 0
KASU 111745Z 31019G24KT 08/M01 A3004 RMK A01 T00791007  RH  055%=      5-min Rain = 0
KASU 111750Z 31018G27KT 09/M01 A3004 RMK A01 T00871007  RH  052%=      5-min Rain = 0
KASU 111755Z 31022G27KT 09/M02 A3004 RMK A01 T00921016  RH  047%=      5-min Rain = 0
KASU 111800Z 31019G25KT 09/M02 A3004 RMK A01 T00891021  RH  047%=      5-min Rain = 0
KASU 111805Z 32022G31KT 09/M02 A3004 RMK A01 T00891024  RH  045%=      5-min Rain = 0
KASU 111810Z 33025G33KT 09/M02 A3004 RMK A01 T00931024  RH  044%=      5-min Rain = 0
KASU 111815Z 34023G36KT 09/M03 A3004 RMK A01 T00921026  RH  044%=      5-min Rain = 0
KASU 111820Z 33025G32KT 09/M03 A3004 RMK A01 T00911027  RH  044%=      5-min Rain = 0
KASU 111825Z 34024G31KT 09/M03 A3004 RMK A01 T00891027  RH  044%=      5-min Rain = 0
KASU 111830Z 33023G29KT 10/M03 A3004 RMK A01 T00961026  RH  043%=      5-min Rain = 0
KASU 111835Z 32022G30KT 10/M03 A3004 RMK A01 T00991026  RH  042%=      5-min Rain = 0
KASU 111840Z 32022G28KT 09/M03 A3004 RMK A01 T00941029  RH  042%=      5-min Rain = 0
KASU 111845Z 32023G29KT 10/M03 A3005 RMK A01 T00971030  RH  041%=      5-min Rain = 0
KASU 111850Z 33023G30KT 10/M03 A3005 RMK A01 T00951032  RH  041%=      5-min Rain = 0
KASU 111855Z 33024G32KT 09/M04 A3005 RMK A01 T00911035  RH  041%=      5-min Rain = 0
KASU 111900Z 33021G28KT 09/M04 A3006 RMK A01 T00921035  RH  041%=      5-min Rain = 0
KASU 111905Z 32019G28KT 09/M03 A3006 RMK A01 T00931034  RH  041%=      5-min Rain = 0
KASU 111910Z 32021G28KT 09/M04 A3006 RMK A01 T00941035  RH  041%=      5-min Rain = 0
KASU 111915Z 33023G30KT 10/M04 A3006 RMK A01 T00951036  RH  040%=      5-min Rain = 0
KASU 111920Z 33021G31KT 10/M04 A3006 RMK A01 T00981036  RH  039%=      5-min Rain = 0
KASU 111925Z 32019G25KT 10/M04 A3006 RMK A01 T00961038  RH  039%=      5-min Rain = 0
KASU 111930Z 33021G30KT 10/M04 A3006 RMK A01 T01031037  RH  038%=      5-min Rain = 0
KASU 111935Z 32020G27KT 11/M04 A3007 RMK A01 T01071038  RH  036%=      5-min Rain = 0
KASU 111940Z 32022G31KT 11/M04 A3007 RMK A01 T01101039  RH  035%=      5-min Rain = 0
KASU 111945Z 33023G31KT 11/M04 A3007 RMK A01 T01091043  RH  035%=      5-min Rain = 0
KASU 111950Z 33022G32KT 11/M04 A3007 RMK A01 T01111044  RH  034%=      5-min Rain = 0
KASU 111955Z 33021G30KT 12/M04 A3007 RMK A01 T01161043  RH  033%=      5-min Rain = 0
KASU 112000Z 32021G27KT 11/M05 A3007 RMK A01 T01131047  RH  033%=      5-min Rain = 0
KASU 112005Z 33024G32KT 11/M05 A3007 RMK A01 T01121054  RH  031%=      5-min Rain = 0
KASU 112010Z 33020G30KT 12/M06 A3008 RMK A01 T01161055  RH  030%=      5-min Rain = 0
KASU 112015Z 32021G28KT 11/M06 A3008 RMK A01 T01141055  RH  030%=      5-min Rain = 0
KASU 112020Z 33022G31KT 12/M05 A3008 RMK A01 T01171051  RH  031%=      5-min Rain = 0
KASU 112025Z 33022G27KT 12/M05 A3009 RMK A01 T01161052  RH  031%=      5-min Rain = 0
KASU 112030Z 32023G30KT 12/M06 A3009 RMK A01 T01151055  RH  030%=      5-min Rain = 0
KASU 112035Z 33023G30KT 12/M06 A3009 RMK A01 T01151059  RH  029%=      5-min Rain = 0
KASU 112040Z 33018G24KT 12/M06 A301 RMK A01 T01181060  RH  029%=      5-min Rain = 0
KASU 112045Z 32021G29KT 12/M07 A3009 RMK A01 T01191065  RH  027%=      5-min Rain = 0
KASU 112050Z 34023G32KT 12/M07 A301 RMK A01 T01191071  RH  026%=      5-min Rain = 0
KASU 112055Z 33022G31KT 12/M07 A301 RMK A01 T01171074  RH  026%=      5-min Rain = 0
KASU 112100Z 32025G34KT 12/M08 A301 RMK A01 T01181080  RH  025%=      5-min Rain = 0
KASU 112105Z 33024G32KT 12/M08 A3011 RMK A01 T01171084  RH  024%=      5-min Rain = 0
KASU 112110Z 33020G29KT 12/M08 A3011 RMK A01 T01191083  RH  024%=      5-min Rain = 0
KASU 112115Z 32024G30KT 12/M09 A3011 RMK A01 T01191085  RH  024%=      5-min Rain = 0
KASU 112120Z 33024G32KT 12/M09 A3011 RMK A01 T01181092  RH  022%=      5-min Rain = 0
KASU 112125Z 33023G30KT 12/M09 A3011 RMK A01 T01171094  RH  022%=      5-min Rain = 0
KASU 112130Z 33022G28KT 12/M09 A3011 RMK A01 T01181091  RH  022%=      5-min Rain = 0
KASU 112135Z 33021G27KT 12/M09 A3011 RMK A01 T01211090  RH  022%=      5-min Rain = 0
KASU 112140Z 33020G29KT 12/M09 A3012 RMK A01 T01201091  RH  022%=      5-min Rain = 0
KASU 112145Z 34020G29KT 12/M10 A3012 RMK A01 T01211099  RH  021%=      5-min Rain = 0
KASU 112150Z 33022G29KT 12/M10 A3013 RMK A01 T01211104  RH  020%=      5-min Rain = 0
KASU 112155Z 34021G28KT 12/M12 A3013 RMK A01 T01201116  RH  018%=      5-min Rain = 0
KASU 112200Z 33020G28KT 12/M11 A3014 RMK A01 T01211113  RH  019%=      5-min Rain = 0
KASU 112205Z 33023G32KT 12/M12 A3014 RMK A01 T01181119  RH  018%=      5-min Rain = 0
KASU 112210Z 33021G28KT 12/M12 A3014 RMK A01 T01191119  RH  018%=      5-min Rain = 0
KASU 112215Z 34019G27KT 12/M12 A3014 RMK A01 T01201119  RH  018%=      5-min Rain = 0
KASU 112220Z 34020G29KT 12/M12 A3014 RMK A01 T01201120  RH  018%=      5-min Rain = 0
KASU 112225Z 33021G28KT 12/M12 A3015 RMK A01 T01191123  RH  017%=      5-min Rain = 0
KASU 112230Z 33020G27KT 12/M12 A3015 RMK A01 T01181124  RH  017%=      5-min Rain = 0
KASU 112235Z 33018G26KT 12/M12 A3015 RMK A01 T01191123  RH  017%=      5-min Rain = 0
KASU 112240Z 33022G30KT 12/M13 A3015 RMK A01 T01181130  RH  017%=      5-min Rain = 0
KASU 112245Z 33021G28KT 12/M13 A3015 RMK A01 T01171130  RH  017%=      5-min Rain = 0
KASU 112250Z 34020G26KT 12/M13 A3016 RMK A01 T01161129  RH  017%=      5-min Rain = 0
KASU 112255Z 34017G23KT 12/M13 A3016 RMK A01 T01151126  RH  017%=      5-min Rain = 0
KASU 112300Z 33019G29KT 12/M13 A3016 RMK A01 T01161126  RH  017%=      5-min Rain = 0
KASU 112305Z 33019G24KT 11/M13 A3017 RMK A01 T01141128  RH  017%=      5-min Rain = 0
KASU 112310Z 33020G28KT 11/M13 A3017 RMK A01 T01131130  RH  017%=      5-min Rain = 0
KASU 112315Z 33023G31KT 11/M14 A3017 RMK A01 T01121138  RH  016%=      5-min Rain = 0
KASU 112320Z 34020G30KT 11/M14 A3017 RMK A01 T01101141  RH  016%=      5-min Rain = 0
KASU 112325Z 33021G29KT 11/M14 A3018 RMK A01 T01081138  RH  017%=      5-min Rain = 0
KASU 112330Z 34019G25KT 11/M14 A3018 RMK A01 T01061137  RH  017%=      5-min Rain = 0
KASU 112335Z 34015G20KT 10/M14 A3019 RMK A01 T01031136  RH  017%=      5-min Rain = 0
KASU 112340Z 34014G19KT 10/M13 A3019 RMK A01 T01011134  RH  018%=      5-min Rain = 0
KASU 112345Z 34012G17KT 10/M13 A3019 RMK A01 T00981133  RH  018%=      5-min Rain = 0
KASU 112350Z 34011KT 10/M13 A302 RMK A01 T00961132  RH  019%=      5-min Rain = 0
KASU 112355Z 33012G17KT 09/M13 A302 RMK A01 T00921129  RH  020%=      5-min Rain = 0
KASU 120000Z 33015KT 09/M13 A302 RMK A01 T00911129  RH  020%=      5-min Rain = 0
KASU 120005Z 33015KT 09/M13 A302 RMK A01 T00901133  RH  019%=      5-min Rain = 0
KASU 120010Z 33014KT 09/M13 A3021 RMK A01 T00881133  RH  020%=      5-min Rain = 0
KASU 120015Z 34012KT 09/M13 A3021 RMK A01 T00851132  RH  020%=      5-min Rain = 0
KASU 120020Z 33010KT 08/M13 A3021 RMK A01 T00821130  RH  021%=      5-min Rain = 0
KASU 120025Z 33010KT 08/M13 A3021 RMK A01 T00801130  RH  021%=      5-min Rain = 0
KASU 120030Z 34010KT 08/M13 A3022 RMK A01 T00791130  RH  021%=      5-min Rain = 0
KASU 120035Z 33009KT 08/M13 A3022 RMK A01 T00781129  RH  022%=      5-min Rain = 0
KASU 120040Z 34009KT 08/M13 A3022 RMK A01 T00761129  RH  022%=      5-min Rain = 0
KASU 120045Z 33008KT 07/M13 A3023 RMK A01 T00731128  RH  023%=      5-min Rain = 0
KASU 120050Z 33008KT 07/M13 A3023 RMK A01 T00701128  RH  023%=      5-min Rain = 0
KASU 120055Z 33007KT 07/M13 A3023 RMK A01 T00651127  RH  024%=      5-min Rain = 0
KASU 120100Z 33007KT 06/M13 A3024 RMK A01 T00601126  RH  025%=      5-min Rain = 0
KASU 120105Z 33007KT 06/M13 A3024 RMK A01 T00561126  RH  026%=      5-min Rain = 0
KASU 120110Z 32006KT 05/M13 A3024 RMK A01 T00531125  RH  027%=      5-min Rain = 0
KASU 120115Z 32006KT 05/M13 A3024 RMK A01 T00491126  RH  027%=      5-min Rain = 0
KASU 120120Z 32006KT 05/M13 A3024 RMK A01 T00461125  RH  028%=      5-min Rain = 0
KASU 120125Z 31005KT 05/M12 A3024 RMK A01 T00471124  RH  028%=      5-min Rain = 0
KASU 120130Z 31004KT 05/M12 A3025 RMK A01 T00461122  RH  029%=      5-min Rain = 0
KASU 120135Z 31004KT 04/M12 A3025 RMK A01 T00441120  RH  030%=      5-min Rain = 0
KASU 120140Z 32005KT 05/M12 A3024 RMK A01 T00461120  RH  029%=      5-min Rain = 0
KASU 120145Z 32005KT 04/M12 A3025 RMK A01 T00431121  RH  030%=      5-min Rain = 0
KASU 120150Z 32005KT 04/M12 A3025 RMK A01 T00381121  RH  031%=      5-min Rain = 0
KASU 120155Z 32005KT 03/M12 A3025 RMK A01 T00341120  RH  032%=      5-min Rain = 0
KASU 120200Z 32006KT 03/M12 A3025 RMK A01 T00321120  RH  032%=      5-min Rain = 0
KASU 120205Z 32006KT 03/M12 A3025 RMK A01 T00291120  RH  033%=      5-min Rain = 0
KASU 120210Z 31005KT 03/M12 A3025 RMK A01 T00291120  RH  033%=      5-min Rain = 0
KASU 120215Z 30005KT 03/M12 A3026 RMK A01 T00321122  RH  032%=      5-min Rain = 0
KASU 120220Z 31004KT 03/M12 A3026 RMK A01 T00331121  RH  032%=      5-min Rain = 0
KASU 120225Z 31004KT 04/M12 A3026 RMK A01 T00351119  RH  032%=      5-min Rain = 0
KASU 120230Z 31005KT 03/M12 A3026 RMK A01 T00341118  RH  032%=      5-min Rain = 0
KASU 120235Z 32005KT 03/M12 A3027 RMK A01 T00311117  RH  033%=      5-min Rain = 0
KASU 120240Z 32005KT 03/M12 A3027 RMK A01 T00311117  RH  033%=      5-min Rain = 0
KASU 120245Z 33004KT 03/M12 A3028 RMK A01 T00281115  RH  034%=      5-min Rain = 0
KASU 120250Z 33004KT 03/M11 A3028 RMK A01 T00331113  RH  034%=      5-min Rain = 0
KASU 120255Z 34004KT 04/M12 A3028 RMK A01 T00351115  RH  033%=      5-min Rain = 0
KASU 120300Z 34004KT 04/M12 A3028 RMK A01 T00361115  RH  033%=      5-min Rain = 0
KASU 120305Z 34003KT 04/M12 A3028 RMK A01 T00371118  RH  031%=      5-min Rain = 0
KASU 120310Z 33003KT 03/M12 A3028 RMK A01 T00311119  RH  033%=      5-min Rain = 0
KASU 120315Z 33003KT 03/M12 A3028 RMK A01 T00261118  RH  034%=      5-min Rain = 0
KASU 120320Z 33003KT 03/M12 A3028 RMK A01 T00271118  RH  034%=      5-min Rain = 0
KASU 120325Z 32004KT 02/M12 A3028 RMK A01 T00241122  RH  034%=      5-min Rain = 0
KASU 120330Z 31004KT 02/M12 A3028 RMK A01 T00171122  RH  035%=      5-min Rain = 0
KASU 120335Z 30004KT 01/M12 A3029 RMK A01 T00141121  RH  036%=      5-min Rain = 0
KASU 120340Z 28006KT 01/M12 A3029 RMK A01 T00131118  RH  037%=      5-min Rain = 0
KASU 120345Z 28006KT 02/M12 A3029 RMK A01 T00191118  RH  036%=      5-min Rain = 0
KASU 120350Z 29006KT 03/M12 A3028 RMK A01 T00251118  RH  035%=      5-min Rain = 0
KASU 120355Z 29005KT 03/M12 A3028 RMK A01 T00291118  RH  033%=      5-min Rain = 0
KASU 120400Z 28005KT 03/M12 A3029 RMK A01 T00291118  RH  033%=      5-min Rain = 0
KASU 120405Z 28004KT 02/M12 A3029 RMK A01 T00221120  RH  035%=      5-min Rain = 0
KASU 120410Z 29003KT 02/M12 A3029 RMK A01 T00171119  RH  036%=      5-min Rain = 0
KASU 120415Z 30004KT 02/M12 A3029 RMK A01 T00201117  RH  036%=      5-min Rain = 0
KASU 120420Z 30004KT 02/M12 A303 RMK A01 T00231117  RH  035%=      5-min Rain = 0
KASU 120425Z 30005KT 02/M12 A303 RMK A01 T00211119  RH  035%=      5-min Rain = 0
KASU 120430Z 30005KT 02/M12 A303 RMK A01 T00191118  RH  036%=      5-min Rain = 0
KASU 120435Z 30006KT 02/M12 A303 RMK A01 T00191117  RH  036%=      5-min Rain = 0
KASU 120440Z 30006KT 02/M12 A303 RMK A01 T00161117  RH  037%=      5-min Rain = 0
KASU 120445Z 30005KT 01/M12 A3031 RMK A01 T00131117  RH  038%=      5-min Rain = 0
KASU 120450Z 29004KT 01/M11 A3031 RMK A01 T00121114  RH  039%=      5-min Rain = 0
KASU 120455Z 28003KT 02/M11 A3031 RMK A01 T00181114  RH  037%=      5-min Rain = 0
KASU 120500Z 29003KT 02/M11 A3031 RMK A01 T00151114  RH  038%=      5-min Rain = 0
KASU 120505Z 27003KT 02/M11 A3031 RMK A01 T00151114  RH  038%=      5-min Rain = 0
KASU 120510Z 26004KT 01/M12 A3031 RMK A01 T00111115  RH  039%=      5-min Rain = 0
KASU 120515Z 26004KT 01/M12 A3031 RMK A01 T00101115  RH  039%=      5-min Rain = 0
KASU 120520Z 27005KT 02/M12 A3031 RMK A01 T00151115  RH  038%=      5-min Rain = 0
KASU 120525Z 29005KT 02/M12 A3031 RMK A01 T00151117  RH  037%=      5-min Rain = 0
KASU 120530Z 29005KT 01/M12 A303 RMK A01 T00101117  RH  039%=      5-min Rain = 0
KASU 120535Z 29005KT 01/M12 A303 RMK A01 T00121116  RH  038%=      5-min Rain = 0
KASU 120540Z 29004KT 01/M12 A303 RMK A01 T00081116  RH  040%=      5-min Rain = 0
KASU 120545Z 30005KT 01/M11 A303 RMK A01 T00071114  RH  040%=      5-min Rain = 0
KASU 120550Z 30004KT 01/M11 A303 RMK A01 T00051114  RH  041%=      5-min Rain = 0
KASU 120555Z 29004KT 00/M11 A303 RMK A01 T00021114  RH  042%=      5-min Rain = 0

Page generated in 0.0214 seconds.